sensor_id;sensor_type;location;lat;lon;timestamp;temperature;humidity
12268;DHT22;6196;48.398;11.736;2023-03-23T00:01:08;8.70;99.90
12268;DHT22;6196;48.398;11.736;2023-03-23T00:03:46;8.60;99.90
12268;DHT22;6196;48.398;11.736;2023-03-23T00:06:13;8.50;99.90
12268;DHT22;6196;48.398;11.736;2023-03-23T00:08:44;8.50;99.90
12268;DHT22;6196;48.398;11.736;2023-03-23T00:11:16;8.50;99.90
12268;DHT22;6196;48.398;11.736;2023-03-23T00:13:48;8.50;99.90
12268;DHT22;6196;48.398;11.736;2023-03-23T00:16:20;8.50;99.90
12268;DHT22;6196;48.398;11.736;2023-03-23T00:18:55;8.60;99.90
12268;DHT22;6196;48.398;11.736;2023-03-23T00:21:26;8.60;99.90
12268;DHT22;6196;48.398;11.736;2023-03-23T00:24:00;8.70;99.90
12268;DHT22;6196;48.398;11.736;2023-03-23T00:26:27;8.70;99.90
12268;DHT22;6196;48.398;11.736;2023-03-23T00:28:55;8.70;99.90
12268;DHT22;6196;48.398;11.736;2023-03-23T00:31:21;8.70;99.90
12268;DHT22;6196;48.398;11.736;2023-03-23T00:33:47;8.70;99.90
12268;DHT22;6196;48.398;11.736;2023-03-23T00:36:13;8.70;99.90
12268;DHT22;6196;48.398;11.736;2023-03-23T00:38:40;8.70;99.90
12268;DHT22;6196;48.398;11.736;2023-03-23T00:41:09;8.70;99.90
12268;DHT22;6196;48.398;11.736;2023-03-23T00:43:37;8.70;99.90
12268;DHT22;6196;48.398;11.736;2023-03-23T00:46:04;8.70;99.90
12268;DHT22;6196;48.398;11.736;2023-03-23T00:48:36;8.60;99.90
12268;DHT22;6196;48.398;11.736;2023-03-23T00:51:06;8.70;99.90
12268;DHT22;6196;48.398;11.736;2023-03-23T00:53:36;8.70;99.90
12268;DHT22;6196;48.398;11.736;2023-03-23T00:56:03;8.70;99.90
12268;DHT22;6196;48.398;11.736;2023-03-23T00:58:29;8.80;99.90
12268;DHT22;6196;48.398;11.736;2023-03-23T01:00:55;8.70;99.90
12268;DHT22;6196;48.398;11.736;2023-03-23T01:03:22;8.70;99.90
12268;DHT22;6196;48.398;11.736;2023-03-23T01:05:51;8.70;99.90
12268;DHT22;6196;48.398;11.736;2023-03-23T01:08:19;8.80;99.90
12268;DHT22;6196;48.398;11.736;2023-03-23T01:10:45;9.10;99.90
12268;DHT22;6196;48.398;11.736;2023-03-23T01:13:12;9.30;99.90
12268;DHT22;6196;48.398;11.736;2023-03-23T01:15:38;9.30;99.90
12268;DHT22;6196;48.398;11.736;2023-03-23T01:18:05;9.40;99.90
12268;DHT22;6196;48.398;11.736;2023-03-23T01:20:31;9.40;99.90
12268;DHT22;6196;48.398;11.736;2023-03-23T01:22:58;9.30;99.90
12268;DHT22;6196;48.398;11.736;2023-03-23T01:25:32;9.30;99.90
12268;DHT22;6196;48.398;11.736;2023-03-23T01:28:01;9.20;99.90
12268;DHT22;6196;48.398;11.736;2023-03-23T01:30:27;9.10;99.90
12268;DHT22;6196;48.398;11.736;2023-03-23T01:32:54;9.10;99.90
12268;DHT22;6196;48.398;11.736;2023-03-23T01:35:20;9.00;99.90
12268;DHT22;6196;48.398;11.736;2023-03-23T01:37:47;8.80;99.90
12268;DHT22;6196;48.398;11.736;2023-03-23T01:40:14;8.70;99.90
12268;DHT22;6196;48.398;11.736;2023-03-23T01:42:40;8.60;99.90
12268;DHT22;6196;48.398;11.736;2023-03-23T01:45:26;8.60;99.90
12268;DHT22;6196;48.398;11.736;2023-03-23T01:48:07;8.50;99.90
12268;DHT22;6196;48.398;11.736;2023-03-23T01:51:09;8.40;99.90
12268;DHT22;6196;48.398;11.736;2023-03-23T01:53:46;8.40;99.90
12268;DHT22;6196;48.398;11.736;2023-03-23T01:56:16;8.40;99.90
12268;DHT22;6196;48.398;11.736;2023-03-23T01:58:47;8.40;99.90
12268;DHT22;6196;48.398;11.736;2023-03-23T02:01:14;8.40;99.90
12268;DHT22;6196;48.398;11.736;2023-03-23T02:03:43;8.40;99.90
12268;DHT22;6196;48.398;11.736;2023-03-23T02:06:10;8.40;99.90
12268;DHT22;6196;48.398;11.736;2023-03-23T02:08:38;8.40;99.90
12268;DHT22;6196;48.398;11.736;2023-03-23T02:11:18;8.40;99.90
12268;DHT22;6196;48.398;11.736;2023-03-23T02:13:46;8.30;99.90
12268;DHT22;6196;48.398;11.736;2023-03-23T02:19:17;8.30;99.90
12268;DHT22;6196;48.398;11.736;2023-03-23T02:34:20;8.10;99.90
12268;DHT22;6196;48.398;11.736;2023-03-23T02:36:59;8.10;99.90
12268;DHT22;6196;48.398;11.736;2023-03-23T02:42:13;8.10;99.90
12268;DHT22;6196;48.398;11.736;2023-03-23T02:44:44;8.10;99.90
12268;DHT22;6196;48.398;11.736;2023-03-23T02:47:25;8.00;99.90
12268;DHT22;6196;48.398;11.736;2023-03-23T02:49:54;8.00;99.90
12268;DHT22;6196;48.398;11.736;2023-03-23T02:52:24;8.10;99.90
12268;DHT22;6196;48.398;11.736;2023-03-23T02:54:54;8.00;99.90
12268;DHT22;6196;48.398;11.736;2023-03-23T02:57:22;8.00;99.90
12268;DHT22;6196;48.398;11.736;2023-03-23T02:59:49;8.10;99.90
12268;DHT22;6196;48.398;11.736;2023-03-23T03:02:25;8.10;99.90
12268;DHT22;6196;48.398;11.736;2023-03-23T03:10:24;8.10;99.90
12268;DHT22;6196;48.398;11.736;2023-03-23T03:15:45;8.10;99.90
12268;DHT22;6196;48.398;11.736;2023-03-23T03:21:08;8.00;99.90
12268;DHT22;6196;48.398;11.736;2023-03-23T03:23:37;7.90;99.90
12268;DHT22;6196;48.398;11.736;2023-03-23T03:26:07;7.90;99.90
12268;DHT22;6196;48.398;11.736;2023-03-23T03:28:36;7.90;99.90
12268;DHT22;6196;48.398;11.736;2023-03-23T03:31:04;8.00;99.90
12268;DHT22;6196;48.398;11.736;2023-03-23T03:33:31;8.00;99.90
12268;DHT22;6196;48.398;11.736;2023-03-23T03:36:03;7.90;99.90
12268;DHT22;6196;48.398;11.736;2023-03-23T03:38:45;7.90;99.90
12268;DHT22;6196;48.398;11.736;2023-03-23T03:41:14;7.90;99.90
12268;DHT22;6196;48.398;11.736;2023-03-23T03:43:40;8.00;99.90
12268;DHT22;6196;48.398;11.736;2023-03-23T03:46:06;8.00;99.90
12268;DHT22;6196;48.398;11.736;2023-03-23T03:48:32;8.10;99.90
12268;DHT22;6196;48.398;11.736;2023-03-23T03:50:58;8.10;99.90
12268;DHT22;6196;48.398;11.736;2023-03-23T03:53:26;8.20;99.90
12268;DHT22;6196;48.398;11.736;2023-03-23T03:55:52;8.20;99.90
12268;DHT22;6196;48.398;11.736;2023-03-23T03:58:22;8.20;99.90
12268;DHT22;6196;48.398;11.736;2023-03-23T04:00:48;8.20;99.90
12268;DHT22;6196;48.398;11.736;2023-03-23T04:03:15;8.20;99.90
12268;DHT22;6196;48.398;11.736;2023-03-23T04:05:42;8.20;99.90
12268;DHT22;6196;48.398;11.736;2023-03-23T04:08:10;8.20;99.90
12268;DHT22;6196;48.398;11.736;2023-03-23T04:10:37;8.30;99.90
12268;DHT22;6196;48.398;11.736;2023-03-23T04:13:03;8.30;99.90
12268;DHT22;6196;48.398;11.736;2023-03-23T04:15:30;8.40;99.90
12268;DHT22;6196;48.398;11.736;2023-03-23T04:17:56;8.40;99.90
12268;DHT22;6196;48.398;11.736;2023-03-23T04:20:23;8.40;99.90
12268;DHT22;6196;48.398;11.736;2023-03-23T04:22:49;8.40;99.90
12268;DHT22;6196;48.398;11.736;2023-03-23T04:25:19;8.50;99.90
12268;DHT22;6196;48.398;11.736;2023-03-23T04:27:49;8.40;99.90
12268;DHT22;6196;48.398;11.736;2023-03-23T04:30:24;8.30;99.90
12268;DHT22;6196;48.398;11.736;2023-03-23T04:32:51;8.30;99.90
12268;DHT22;6196;48.398;11.736;2023-03-23T04:35:22;8.30;99.90
12268;DHT22;6196;48.398;11.736;2023-03-23T04:37:51;8.30;99.90
12268;DHT22;6196;48.398;11.736;2023-03-23T04:40:18;8.30;99.90
12268;DHT22;6196;48.398;11.736;2023-03-23T04:42:45;8.40;99.90
12268;DHT22;6196;48.398;11.736;2023-03-23T04:45:17;8.50;99.90
12268;DHT22;6196;48.398;11.736;2023-03-23T04:47:49;8.50;99.90
12268;DHT22;6196;48.398;11.736;2023-03-23T04:50:21;8.30;99.90
12268;DHT22;6196;48.398;11.736;2023-03-23T04:52:49;8.30;99.90
12268;DHT22;6196;48.398;11.736;2023-03-23T04:55:17;8.30;99.90
12268;DHT22;6196;48.398;11.736;2023-03-23T04:57:43;8.30;99.90
12268;DHT22;6196;48.398;11.736;2023-03-23T05:00:10;8.30;99.90
12268;DHT22;6196;48.398;11.736;2023-03-23T05:02:45;8.40;99.90
12268;DHT22;6196;48.398;11.736;2023-03-23T05:05:13;8.50;99.90
12268;DHT22;6196;48.398;11.736;2023-03-23T05:07:41;8.40;99.90
12268;DHT22;6196;48.398;11.736;2023-03-23T05:10:09;8.40;99.90
12268;DHT22;6196;48.398;11.736;2023-03-23T05:12:37;8.40;99.90
12268;DHT22;6196;48.398;11.736;2023-03-23T05:15:03;8.50;99.90
12268;DHT22;6196;48.398;11.736;2023-03-23T05:17:30;8.50;99.90
12268;DHT22;6196;48.398;11.736;2023-03-23T05:19:58;8.50;99.90
12268;DHT22;6196;48.398;11.736;2023-03-23T05:22:26;8.50;99.90
12268;DHT22;6196;48.398;11.736;2023-03-23T05:24:53;8.50;99.90
12268;DHT22;6196;48.398;11.736;2023-03-23T05:27:19;8.50;99.90
12268;DHT22;6196;48.398;11.736;2023-03-23T05:29:46;8.60;99.90
12268;DHT22;6196;48.398;11.736;2023-03-23T05:32:17;8.60;99.90
12268;DHT22;6196;48.398;11.736;2023-03-23T05:34:45;8.60;99.90
12268;DHT22;6196;48.398;11.736;2023-03-23T05:37:12;8.60;99.90
12268;DHT22;6196;48.398;11.736;2023-03-23T05:39:39;8.70;99.90
12268;DHT22;6196;48.398;11.736;2023-03-23T05:42:05;8.70;99.90
12268;DHT22;6196;48.398;11.736;2023-03-23T05:44:31;8.60;99.90
12268;DHT22;6196;48.398;11.736;2023-03-23T05:46:57;8.60;99.90
12268;DHT22;6196;48.398;11.736;2023-03-23T05:49:23;8.60;99.90
12268;DHT22;6196;48.398;11.736;2023-03-23T05:51:50;8.50;99.90
12268;DHT22;6196;48.398;11.736;2023-03-23T05:54:16;8.50;99.90
12268;DHT22;6196;48.398;11.736;2023-03-23T05:56:42;8.50;99.90
12268;DHT22;6196;48.398;11.736;2023-03-23T05:59:09;8.50;99.90
12268;DHT22;6196;48.398;11.736;2023-03-23T06:01:36;8.50;99.90
12268;DHT22;6196;48.398;11.736;2023-03-23T06:04:03;8.60;99.90
12268;DHT22;6196;48.398;11.736;2023-03-23T06:06:29;8.80;99.90
12268;DHT22;6196;48.398;11.736;2023-03-23T06:08:57;8.80;99.90
12268;DHT22;6196;48.398;11.736;2023-03-23T06:11:24;9.00;99.90
12268;DHT22;6196;48.398;11.736;2023-03-23T06:13:51;9.10;99.90
12268;DHT22;6196;48.398;11.736;2023-03-23T06:16:19;9.20;99.90
12268;DHT22;6196;48.398;11.736;2023-03-23T06:18:45;9.30;99.90
12268;DHT22;6196;48.398;11.736;2023-03-23T06:21:11;9.30;99.90
12268;DHT22;6196;48.398;11.736;2023-03-23T06:23:37;9.30;99.90
12268;DHT22;6196;48.398;11.736;2023-03-23T06:26:06;9.40;99.90
12268;DHT22;6196;48.398;11.736;2023-03-23T06:28:36;9.50;99.90
12268;DHT22;6196;48.398;11.736;2023-03-23T06:31:05;9.60;99.90
12268;DHT22;6196;48.398;11.736;2023-03-23T06:33:36;9.70;99.90
12268;DHT22;6196;48.398;11.736;2023-03-23T06:36:04;9.80;99.90
12268;DHT22;6196;48.398;11.736;2023-03-23T06:38:30;9.90;99.90
12268;DHT22;6196;48.398;11.736;2023-03-23T06:40:56;9.70;99.90
12268;DHT22;6196;48.398;11.736;2023-03-23T06:43:23;9.90;99.90
12268;DHT22;6196;48.398;11.736;2023-03-23T06:45:50;10.00;99.90
12268;DHT22;6196;48.398;11.736;2023-03-23T06:48:17;9.90;99.90
12268;DHT22;6196;48.398;11.736;2023-03-23T06:50:44;10.10;99.90
12268;DHT22;6196;48.398;11.736;2023-03-23T06:53:10;10.20;99.90
12268;DHT22;6196;48.398;11.736;2023-03-23T06:55:37;10.30;99.90
12268;DHT22;6196;48.398;11.736;2023-03-23T06:58:07;10.60;99.90
12268;DHT22;6196;48.398;11.736;2023-03-23T07:00:34;10.70;99.90
12268;DHT22;6196;48.398;11.736;2023-03-23T07:02:59;10.90;99.90
12268;DHT22;6196;48.398;11.736;2023-03-23T07:05:25;11.10;99.90
12268;DHT22;6196;48.398;11.736;2023-03-23T07:07:51;11.20;99.90
12268;DHT22;6196;48.398;11.736;2023-03-23T07:10:17;11.20;99.90
12268;DHT22;6196;48.398;11.736;2023-03-23T07:12:43;11.40;99.90
12268;DHT22;6196;48.398;11.736;2023-03-23T07:15:10;11.60;99.90
12268;DHT22;6196;48.398;11.736;2023-03-23T07:17:37;11.90;99.90
12268;DHT22;6196;48.398;11.736;2023-03-23T07:20:04;12.10;99.90
12268;DHT22;6196;48.398;11.736;2023-03-23T07:22:31;12.30;99.90
12268;DHT22;6196;48.398;11.736;2023-03-23T07:24:57;12.50;99.90
12268;DHT22;6196;48.398;11.736;2023-03-23T07:27:22;12.80;99.90
12268;DHT22;6196;48.398;11.736;2023-03-23T07:29:48;13.10;99.90
12268;DHT22;6196;48.398;11.736;2023-03-23T07:32:14;13.30;99.90
12268;DHT22;6196;48.398;11.736;2023-03-23T07:34:40;13.50;99.90
12268;DHT22;6196;48.398;11.736;2023-03-23T07:37:06;13.20;99.90
12268;DHT22;6196;48.398;11.736;2023-03-23T07:39:33;13.20;99.90
12268;DHT22;6196;48.398;11.736;2023-03-23T07:41:59;13.60;99.90
12268;DHT22;6196;48.398;11.736;2023-03-23T07:44:25;13.40;99.90
12268;DHT22;6196;48.398;11.736;2023-03-23T07:46:51;13.20;99.90
12268;DHT22;6196;48.398;11.736;2023-03-23T07:49:18;12.80;99.90
12268;DHT22;6196;48.398;11.736;2023-03-23T07:51:44;13.00;99.90
12268;DHT22;6196;48.398;11.736;2023-03-23T07:54:11;13.40;99.90
12268;DHT22;6196;48.398;11.736;2023-03-23T07:56:37;13.70;99.90
12268;DHT22;6196;48.398;11.736;2023-03-23T07:59:06;13.90;99.90
12268;DHT22;6196;48.398;11.736;2023-03-23T08:01:32;14.00;99.90
12268;DHT22;6196;48.398;11.736;2023-03-23T08:03:59;14.20;99.90
12268;DHT22;6196;48.398;11.736;2023-03-23T08:06:25;14.30;99.90
12268;DHT22;6196;48.398;11.736;2023-03-23T08:08:52;14.50;99.90
12268;DHT22;6196;48.398;11.736;2023-03-23T08:11:19;14.50;99.90
12268;DHT22;6196;48.398;11.736;2023-03-23T08:13:46;14.50;99.90
12268;DHT22;6196;48.398;11.736;2023-03-23T08:16:12;14.60;99.90
12268;DHT22;6196;48.398;11.736;2023-03-23T08:18:39;14.80;99.90
12268;DHT22;6196;48.398;11.736;2023-03-23T08:21:06;14.80;99.90
12268;DHT22;6196;48.398;11.736;2023-03-23T08:23:35;14.90;99.90
12268;DHT22;6196;48.398;11.736;2023-03-23T08:26:06;15.10;99.90
12268;DHT22;6196;48.398;11.736;2023-03-23T08:28:36;15.10;99.90
12268;DHT22;6196;48.398;11.736;2023-03-23T08:31:08;15.20;99.90
12268;DHT22;6196;48.398;11.736;2023-03-23T08:33:36;15.10;99.90
12268;DHT22;6196;48.398;11.736;2023-03-23T08:36:03;15.20;99.90
12268;DHT22;6196;48.398;11.736;2023-03-23T08:38:30;15.40;99.90
12268;DHT22;6196;48.398;11.736;2023-03-23T08:41:01;15.60;99.90
12268;DHT22;6196;48.398;11.736;2023-03-23T08:43:33;15.90;99.90
12268;DHT22;6196;48.398;11.736;2023-03-23T08:45:59;15.80;99.90
12268;DHT22;6196;48.398;11.736;2023-03-23T08:48:26;15.90;99.90
12268;DHT22;6196;48.398;11.736;2023-03-23T08:50:52;16.10;99.90
12268;DHT22;6196;48.398;11.736;2023-03-23T08:53:19;16.20;99.90
12268;DHT22;6196;48.398;11.736;2023-03-23T08:55:47;16.50;99.90
12268;DHT22;6196;48.398;11.736;2023-03-23T08:58:14;16.50;99.90
12268;DHT22;6196;48.398;11.736;2023-03-23T09:00:40;16.50;99.90
12268;DHT22;6196;48.398;11.736;2023-03-23T09:03:06;16.80;99.90
12268;DHT22;6196;48.398;11.736;2023-03-23T09:05:32;17.20;99.90
12268;DHT22;6196;48.398;11.736;2023-03-23T09:07:58;17.50;99.90
12268;DHT22;6196;48.398;11.736;2023-03-23T09:10:27;17.80;99.90
12268;DHT22;6196;48.398;11.736;2023-03-23T09:12:54;18.00;99.90
12268;DHT22;6196;48.398;11.736;2023-03-23T09:15:20;18.20;99.90
12268;DHT22;6196;48.398;11.736;2023-03-23T09:17:49;18.50;99.90
12268;DHT22;6196;48.398;11.736;2023-03-23T09:20:19;18.70;99.90
12268;DHT22;6196;48.398;11.736;2023-03-23T09:22:50;18.60;99.90
12268;DHT22;6196;48.398;11.736;2023-03-23T09:25:19;18.50;99.90
12268;DHT22;6196;48.398;11.736;2023-03-23T09:27:51;18.70;99.90
12268;DHT22;6196;48.398;11.736;2023-03-23T09:30:29;19.00;99.90
12268;DHT22;6196;48.398;11.736;2023-03-23T09:32:57;19.30;99.90
12268;DHT22;6196;48.398;11.736;2023-03-23T09:35:24;19.60;99.90
12268;DHT22;6196;48.398;11.736;2023-03-23T09:37:51;19.40;99.90
12268;DHT22;6196;48.398;11.736;2023-03-23T09:40:23;19.60;99.90
12268;DHT22;6196;48.398;11.736;2023-03-23T09:51:42;18.90;99.90
12268;DHT22;6196;48.398;11.736;2023-03-23T09:54:12;18.60;99.90
12268;DHT22;6196;48.398;11.736;2023-03-23T09:56:44;18.80;99.90
12268;DHT22;6196;48.398;11.736;2023-03-23T09:59:16;19.00;99.90
12268;DHT22;6196;48.398;11.736;2023-03-23T10:02:14;18.80;99.90
12268;DHT22;6196;48.398;11.736;2023-03-23T10:04:55;18.50;99.90
12268;DHT22;6196;48.398;11.736;2023-03-23T10:07:24;18.80;99.90
12268;DHT22;6196;48.398;11.736;2023-03-23T10:09:57;18.50;99.90
12268;DHT22;6196;48.398;11.736;2023-03-23T10:12:52;18.40;99.90
12268;DHT22;6196;48.398;11.736;2023-03-23T10:15:43;18.60;99.90
12268;DHT22;6196;48.398;11.736;2023-03-23T10:18:17;19.00;99.90
12268;DHT22;6196;48.398;11.736;2023-03-23T10:20:59;19.10;99.90
12268;DHT22;6196;48.398;11.736;2023-03-23T10:27:26;19.10;99.90
12268;DHT22;6196;48.398;11.736;2023-03-23T10:32:44;18.80;99.90
12268;DHT22;6196;48.398;11.736;2023-03-23T10:35:52;18.60;99.90
12268;DHT22;6196;48.398;11.736;2023-03-23T10:41:11;18.50;99.90
12268;DHT22;6196;48.398;11.736;2023-03-23T10:43:39;18.60;99.90
12268;DHT22;6196;48.398;11.736;2023-03-23T10:49:00;18.60;99.90
12268;DHT22;6196;48.398;11.736;2023-03-23T10:51:36;18.50;99.90
12268;DHT22;6196;48.398;11.736;2023-03-23T10:54:05;18.60;99.90
12268;DHT22;6196;48.398;11.736;2023-03-23T10:56:40;18.60;99.90
12268;DHT22;6196;48.398;11.736;2023-03-23T10:59:19;18.60;99.90
12268;DHT22;6196;48.398;11.736;2023-03-23T11:01:51;18.80;99.90
12268;DHT22;6196;48.398;11.736;2023-03-23T11:04:19;18.80;99.90
12268;DHT22;6196;48.398;11.736;2023-03-23T11:06:54;18.90;99.90
12268;DHT22;6196;48.398;11.736;2023-03-23T11:09:35;18.60;99.90
12268;DHT22;6196;48.398;11.736;2023-03-23T11:12:03;18.60;99.90
12268;DHT22;6196;48.398;11.736;2023-03-23T11:14:31;18.80;99.90
12268;DHT22;6196;48.398;11.736;2023-03-23T11:17:05;19.00;99.90
12268;DHT22;6196;48.398;11.736;2023-03-23T11:19:44;19.00;99.90
12268;DHT22;6196;48.398;11.736;2023-03-23T11:22:18;18.90;99.90
12268;DHT22;6196;48.398;11.736;2023-03-23T11:25:00;19.20;99.90
12268;DHT22;6196;48.398;11.736;2023-03-23T11:27:29;19.30;99.90
12268;DHT22;6196;48.398;11.736;2023-03-23T11:30:10;19.60;99.90
12268;DHT22;6196;48.398;11.736;2023-03-23T11:32:46;19.70;99.90
12268;DHT22;6196;48.398;11.736;2023-03-23T11:35:23;19.60;99.90
12268;DHT22;6196;48.398;11.736;2023-03-23T11:37:54;19.70;99.90
12268;DHT22;6196;48.398;11.736;2023-03-23T11:40:27;19.70;99.90
12268;DHT22;6196;48.398;11.736;2023-03-23T11:42:59;19.30;99.90
12268;DHT22;6196;48.398;11.736;2023-03-23T11:45:40;19.60;99.90
12268;DHT22;6196;48.398;11.736;2023-03-23T11:51:30;19.60;99.80
12268;DHT22;6196;48.398;11.736;2023-03-23T11:54:37;19.80;99.10
12268;DHT22;6196;48.398;11.736;2023-03-23T11:57:10;20.00;99.20
12268;DHT22;6196;48.398;11.736;2023-03-23T11:59:41;20.00;98.10
12268;DHT22;6196;48.398;11.736;2023-03-23T12:08:08;20.20;97.70
12268;DHT22;6196;48.398;11.736;2023-03-23T12:11:15;20.30;97.60
12268;DHT22;6196;48.398;11.736;2023-03-23T12:13:54;20.60;97.20
12268;DHT22;6196;48.398;11.736;2023-03-23T12:16:43;20.70;96.90
12268;DHT22;6196;48.398;11.736;2023-03-23T12:19:31;21.40;97.20
12268;DHT22;6196;48.398;11.736;2023-03-23T12:33:54;20.90;96.40
12268;DHT22;6196;48.398;11.736;2023-03-23T12:43:18;21.60;96.60
12268;DHT22;6196;48.398;11.736;2023-03-23T12:48:39;21.50;95.70
12268;DHT22;6196;48.398;11.736;2023-03-23T12:51:36;21.60;96.50
12268;DHT22;6196;48.398;11.736;2023-03-23T12:57:07;21.40;97.40
12268;DHT22;6196;48.398;11.736;2023-03-23T12:59:47;21.10;95.70
12268;DHT22;6196;48.398;11.736;2023-03-23T13:02:30;20.90;97.20
12268;DHT22;6196;48.398;11.736;2023-03-23T13:08:01;20.60;96.80
12268;DHT22;6196;48.398;11.736;2023-03-23T13:10:39;20.60;97.60
12268;DHT22;6196;48.398;11.736;2023-03-23T13:13:24;20.60;96.70
12268;DHT22;6196;48.398;11.736;2023-03-23T13:22:39;20.30;96.60
12268;DHT22;6196;48.398;11.736;2023-03-23T13:25:17;20.30;97.50
12268;DHT22;6196;48.398;11.736;2023-03-23T13:27:56;20.30;97.00
12268;DHT22;6196;48.398;11.736;2023-03-23T13:30:27;20.10;96.00
12268;DHT22;6196;48.398;11.736;2023-03-23T13:33:02;20.00;97.80
12268;DHT22;6196;48.398;11.736;2023-03-23T13:35:35;19.70;97.70
12268;DHT22;6196;48.398;11.736;2023-03-23T13:38:13;19.60;97.40
12268;DHT22;6196;48.398;11.736;2023-03-23T13:40:45;19.50;97.30
12268;DHT22;6196;48.398;11.736;2023-03-23T13:43:12;19.30;98.40
12268;DHT22;6196;48.398;11.736;2023-03-23T13:45:47;19.30;98.40
12268;DHT22;6196;48.398;11.736;2023-03-23T13:50:59;19.50;98.10
12268;DHT22;6196;48.398;11.736;2023-03-23T13:53:27;19.50;98.00
12268;DHT22;6196;48.398;11.736;2023-03-23T13:56:37;19.50;98.80
12268;DHT22;6196;48.398;11.736;2023-03-23T14:01:53;19.50;98.50
12268;DHT22;6196;48.398;11.736;2023-03-23T14:04:21;19.20;99.30
12268;DHT22;6196;48.398;11.736;2023-03-23T14:06:50;19.20;99.10
12268;DHT22;6196;48.398;11.736;2023-03-23T14:09:33;19.10;99.00
12268;DHT22;6196;48.398;11.736;2023-03-23T14:14:59;19.90;97.60
12268;DHT22;6196;48.398;11.736;2023-03-23T14:17:31;20.30;97.60
12268;DHT22;6196;48.398;11.736;2023-03-23T14:20:05;20.40;98.00
12268;DHT22;6196;48.398;11.736;2023-03-23T14:22:35;20.30;97.30
12268;DHT22;6196;48.398;11.736;2023-03-23T14:25:11;20.40;97.90
12268;DHT22;6196;48.398;11.736;2023-03-23T14:27:39;20.70;97.50
12268;DHT22;6196;48.398;11.736;2023-03-23T14:30:12;20.70;96.70
12268;DHT22;6196;48.398;11.736;2023-03-23T14:32:39;21.00;96.90
12268;DHT22;6196;48.398;11.736;2023-03-23T14:35:12;21.40;95.70
12268;DHT22;6196;48.398;11.736;2023-03-23T14:37:43;21.60;94.90
12268;DHT22;6196;48.398;11.736;2023-03-23T14:40:16;22.20;95.50
12268;DHT22;6196;48.398;11.736;2023-03-23T14:42:43;22.70;94.60
12268;DHT22;6196;48.398;11.736;2023-03-23T14:45:20;22.30;95.70
12268;DHT22;6196;48.398;11.736;2023-03-23T14:50:30;21.50;96.10
12268;DHT22;6196;48.398;11.736;2023-03-23T14:53:30;20.80;95.70
12268;DHT22;6196;48.398;11.736;2023-03-23T14:56:02;20.30;96.60
12268;DHT22;6196;48.398;11.736;2023-03-23T14:58:38;19.80;96.80
12268;DHT22;6196;48.398;11.736;2023-03-23T15:01:24;19.60;97.50
12268;DHT22;6196;48.398;11.736;2023-03-23T15:04:08;19.40;97.20
12268;DHT22;6196;48.398;11.736;2023-03-23T15:06:38;19.30;97.30
12268;DHT22;6196;48.398;11.736;2023-03-23T15:09:10;19.20;97.90
12268;DHT22;6196;48.398;11.736;2023-03-23T15:11:39;19.10;97.80
12268;DHT22;6196;48.398;11.736;2023-03-23T15:14:15;19.10;97.70
12268;DHT22;6196;48.398;11.736;2023-03-23T15:16:51;18.90;97.60
12268;DHT22;6196;48.398;11.736;2023-03-23T15:19:41;18.80;97.90
12268;DHT22;6196;48.398;11.736;2023-03-23T15:22:29;18.70;98.30
12268;DHT22;6196;48.398;11.736;2023-03-23T15:28:06;18.40;98.60
12268;DHT22;6196;48.398;11.736;2023-03-23T15:30:36;18.30;98.60
12268;DHT22;6196;48.398;11.736;2023-03-23T15:33:12;18.40;98.90
12268;DHT22;6196;48.398;11.736;2023-03-23T15:35:47;18.30;99.40
12268;DHT22;6196;48.398;11.736;2023-03-23T15:40:53;18.00;99.00
12268;DHT22;6196;48.398;11.736;2023-03-23T15:43:24;17.90;99.10
12268;DHT22;6196;48.398;11.736;2023-03-23T15:46:04;17.90;99.20
12268;DHT22;6196;48.398;11.736;2023-03-23T15:48:48;17.90;99.00
12268;DHT22;6196;48.398;11.736;2023-03-23T15:51:17;17.90;98.90
12268;DHT22;6196;48.398;11.736;2023-03-23T15:53:43;17.80;99.10
12268;DHT22;6196;48.398;11.736;2023-03-23T15:56:11;17.80;99.30
12268;DHT22;6196;48.398;11.736;2023-03-23T15:58:39;17.70;99.70
12268;DHT22;6196;48.398;11.736;2023-03-23T16:01:16;17.70;99.60
12268;DHT22;6196;48.398;11.736;2023-03-23T16:03:54;17.60;99.20
12268;DHT22;6196;48.398;11.736;2023-03-23T16:06:25;17.60;99.60
12268;DHT22;6196;48.398;11.736;2023-03-23T16:08:53;17.50;99.30
12268;DHT22;6196;48.398;11.736;2023-03-23T16:11:22;17.60;99.90
12268;DHT22;6196;48.398;11.736;2023-03-23T16:13:51;17.50;99.90
12268;DHT22;6196;48.398;11.736;2023-03-23T16:19:13;17.50;99.70
12268;DHT22;6196;48.398;11.736;2023-03-23T16:21:41;17.40;99.90
12268;DHT22;6196;48.398;11.736;2023-03-23T16:24:09;17.40;99.90
12268;DHT22;6196;48.398;11.736;2023-03-23T16:26:36;17.40;99.90
12268;DHT22;6196;48.398;11.736;2023-03-23T16:29:11;17.20;99.90
12268;DHT22;6196;48.398;11.736;2023-03-23T16:31:54;17.20;99.90
12268;DHT22;6196;48.398;11.736;2023-03-23T16:34:21;17.10;99.90
12268;DHT22;6196;48.398;11.736;2023-03-23T16:36:48;17.20;99.90
12268;DHT22;6196;48.398;11.736;2023-03-23T16:39:15;17.00;99.90
12268;DHT22;6196;48.398;11.736;2023-03-23T16:41:44;17.00;99.90
12268;DHT22;6196;48.398;11.736;2023-03-23T16:44:11;16.90;99.90
12268;DHT22;6196;48.398;11.736;2023-03-23T16:46:38;16.80;99.90
12268;DHT22;6196;48.398;11.736;2023-03-23T16:49:05;16.80;99.90
12268;DHT22;6196;48.398;11.736;2023-03-23T16:51:32;16.70;99.90
12268;DHT22;6196;48.398;11.736;2023-03-23T16:53:59;16.70;99.90
12268;DHT22;6196;48.398;11.736;2023-03-23T16:56:26;16.70;99.90
12268;DHT22;6196;48.398;11.736;2023-03-23T16:58:53;16.70;99.90
12268;DHT22;6196;48.398;11.736;2023-03-23T17:01:20;16.60;99.90
12268;DHT22;6196;48.398;11.736;2023-03-23T17:03:47;16.50;99.90
12268;DHT22;6196;48.398;11.736;2023-03-23T17:06:14;16.50;99.90
12268;DHT22;6196;48.398;11.736;2023-03-23T17:08:41;16.40;99.90
12268;DHT22;6196;48.398;11.736;2023-03-23T17:11:09;16.50;99.90
12268;DHT22;6196;48.398;11.736;2023-03-23T17:13:37;16.40;99.90
12268;DHT22;6196;48.398;11.736;2023-03-23T17:16:05;16.50;99.90
12268;DHT22;6196;48.398;11.736;2023-03-23T17:18:32;16.40;99.90
12268;DHT22;6196;48.398;11.736;2023-03-23T17:20:59;16.40;99.90
12268;DHT22;6196;48.398;11.736;2023-03-23T17:23:26;16.40;99.90
12268;DHT22;6196;48.398;11.736;2023-03-23T17:25:53;16.30;99.90
12268;DHT22;6196;48.398;11.736;2023-03-23T17:28:20;16.20;99.90
12268;DHT22;6196;48.398;11.736;2023-03-23T17:30:47;16.10;99.90
12268;DHT22;6196;48.398;11.736;2023-03-23T17:33:14;16.10;99.90
12268;DHT22;6196;48.398;11.736;2023-03-23T17:35:41;16.10;99.90
12268;DHT22;6196;48.398;11.736;2023-03-23T17:38:11;16.00;99.90
12268;DHT22;6196;48.398;11.736;2023-03-23T17:40:38;16.00;99.90
12268;DHT22;6196;48.398;11.736;2023-03-23T17:43:05;15.90;99.90
12268;DHT22;6196;48.398;11.736;2023-03-23T17:45:32;15.80;99.90
12268;DHT22;6196;48.398;11.736;2023-03-23T17:47:59;15.80;99.90
12268;DHT22;6196;48.398;11.736;2023-03-23T17:50:26;15.70;99.90
12268;DHT22;6196;48.398;11.736;2023-03-23T17:52:53;15.60;99.90